Time;durP1;ratioP1;P1;durP2;ratioP2;P2;SDS_P1;SDS_P2;PMS_P1;PMS_P2;Temp;Humidity;BMP_temperature;BMP_pressure;BME280_temperature;BME280_humidity;BME280_pressure;Samples;Min_cycle;Max_cycle;Signal;HPM_P1;HPM_P2
2023/04/19 00:02:15;;;;;;;20.40;13.00;;;;;;;13.03;68.08;99175.80;223527;182;138541;-56
2023/04/19 00:07:19;;;;;;;21.90;13.50;;;;;;;13.01;68.19;99171.11;223504;183;138259;-57
2023/04/19 00:12:22;;;;;;;17.80;13.40;;;;;;;12.98;68.29;99165.44;223493;183;147334;-56
2023/04/19 00:17:26;;;;;;;16.20;13.00;;;;;;;12.97;68.48;99162.90;223481;183;139135;-57
2023/04/19 00:22:29;;;;;;;19.70;12.60;;;;;;;12.94;68.57;99156.86;223434;183;139532;-56
2023/04/19 00:27:32;;;;;;;18.50;12.40;;;;;;;12.93;68.81;99154.80;223516;183;147041;-57
2023/04/19 00:32:35;;;;;;;18.80;13.80;;;;;;;12.96;68.82;99148.17;223505;183;138367;-59
2023/04/19 00:37:38;;;;;;;16.90;13.10;;;;;;;12.99;69.08;99142.79;223490;183;138061;-56
2023/04/19 00:42:41;;;;;;;23.70;14.80;;;;;;;12.99;69.22;99134.59;223423;183;147240;-59
2023/04/19 00:47:46;;;;;;;22.20;14.90;;;;;;;12.96;69.30;99130.51;223467;183;138827;-59
2023/04/19 00:52:52;;;;;;;18.20;14.40;;;;;;;12.91;69.48;99124.10;223570;182;137026;-59
2023/04/19 00:57:56;;;;;;;19.10;13.50;;;;;;;12.86;69.61;99122.16;223568;183;147217;-59
2023/04/19 01:02:59;;;;;;;17.70;13.30;;;;;;;12.81;69.97;99113.95;223560;182;138406;-59
2023/04/19 01:08:03;;;;;;;20.20;12.80;;;;;;;12.76;70.22;99104.34;223487;183;140241;-59
2023/04/19 01:13:06;;;;;;;18.70;13.70;;;;;;;12.75;70.15;99105.27;223519;182;146985;-56
2023/04/19 01:18:12;;;;;;;22.30;14.30;;;;;;;12.67;70.22;99100.00;223494;182;138644;-56
2023/04/19 01:23:17;;;;;;;19.50;14.60;;;;;;;12.64;70.20;99093.23;223557;182;136729;-56
2023/04/19 01:28:20;;;;;;;24.30;14.70;;;;;;;12.62;70.26;99088.43;223625;183;147814;-57
2023/04/19 01:33:25;;;;;;;20.80;14.70;;;;;;;12.54;70.34;99085.42;223552;183;139231;-57
2023/04/19 01:38:28;;;;;;;21.60;15.60;;;;;;;12.54;70.33;99085.56;223477;183;138114;-57
2023/04/19 01:43:31;;;;;;;20.70;14.30;;;;;;;12.53;70.42;99082.60;223559;182;147190;-57
2023/04/19 01:48:37;;;;;;;17.10;12.00;;;;;;;12.49;70.40;99073.09;223522;183;138980;-57
2023/04/19 01:53:40;;;;;;;18.40;13.00;;;;;;;12.53;70.63;99066.24;223570;183;137551;-56
2023/04/19 01:58:43;;;;;;;18.10;12.90;;;;;;;12.58;70.39;99060.20;223517;182;147645;-55
2023/04/19 02:03:46;;;;;;;19.90;13.70;;;;;;;12.56;70.20;99056.42;223502;182;138427;-58
2023/04/19 02:08:50;;;;;;;19.00;13.60;;;;;;;12.50;69.80;99047.40;223488;183;140194;-56
2023/04/19 02:13:53;;;;;;;20.50;13.30;;;;;;;12.47;69.61;99044.76;223462;183;147112;-59
2023/04/19 02:18:56;;;;;;;19.50;13.50;;;;;;;12.46;69.49;99034.52;223591;182;139275;-57
2023/04/19 02:24:00;;;;;;;16.00;13.10;;;;;;;12.41;69.27;99034.01;223585;183;139013;-56
2023/04/19 02:29:03;;;;;;;17.30;12.70;;;;;;;12.37;69.15;99033.06;223536;182;149363;-58
2023/04/19 02:34:09;;;;;;;17.00;12.20;;;;;;;12.37;68.99;99027.69;223540;183;139302;-55
2023/04/19 02:39:12;;;;;;;17.00;12.60;;;;;;;12.39;68.85;99027.05;223566;183;138282;-58
2023/04/19 02:44:15;;;;;;;19.40;13.30;;;;;;;12.36;68.87;99021.16;223600;182;147097;-55
2023/04/19 02:49:19;;;;;;;16.90;13.30;;;;;;;12.31;68.94;99019.01;223498;182;138670;-56
2023/04/19 02:54:23;;;;;;;16.40;13.40;;;;;;;12.30;69.06;99016.23;223645;183;137338;-56
2023/04/19 02:59:26;;;;;;;16.20;13.30;;;;;;;12.29;69.17;99018.46;223639;183;147672;-59
2023/04/19 03:04:30;;;;;;;18.20;12.50;;;;;;;12.22;69.14;99016.10;223493;183;139011;-58
2023/04/19 03:09:34;;;;;;;17.10;12.20;;;;;;;12.14;69.10;99010.59;223520;183;137875;-58
2023/04/19 03:14:38;;;;;;;17.30;11.70;;;;;;;12.09;69.10;99000.26;223568;183;146971;-60
2023/04/19 03:19:41;;;;;;;17.40;11.80;;;;;;;12.05;68.79;98998.77;223459;183;138708;-59
2023/04/19 03:24:45;;;;;;;14.90;11.20;;;;;;;12.05;68.70;98992.34;223582;183;143738;-59
2023/04/19 03:29:56;;;;;;;16.90;11.70;;;;;;;12.06;68.79;98987.31;223625;183;146804;-57
2023/04/19 03:35:00;;;;;;;15.10;11.20;;;;;;;12.01;68.31;98981.07;223537;183;138869;-59
2023/04/19 03:40:04;;;;;;;17.00;11.80;;;;;;;11.98;68.38;98977.89;223583;182;137635;-58
2023/04/19 03:45:09;;;;;;;15.00;11.20;;;;;;;11.93;68.35;98967.94;223533;183;147144;-58
2023/04/19 03:50:15;;;;;;;14.10;10.10;;;;;;;11.86;67.96;98968.60;223508;182;138496;-57
2023/04/19 03:55:20;;;;;;;16.90;11.10;;;;;;;11.81;68.13;98964.10;223519;182;137305;-57
2023/04/19 04:00:24;;;;;;;13.80;10.00;;;;;;;11.75;68.00;98965.23;223594;182;147607;-57
2023/04/19 04:05:30;;;;;;;12.70;9.50;;;;;;;11.71;68.26;98962.46;223552;182;138867;-57
2023/04/19 04:10:34;;;;;;;11.40;9.20;;;;;;;11.68;67.99;98958.23;223640;182;138342;-56
2023/04/19 04:15:38;;;;;;;11.70;9.30;;;;;;;11.68;68.04;98955.97;223435;182;148666;-57
2023/04/19 04:20:43;;;;;;;13.40;9.70;;;;;;;11.70;67.94;98951.35;223598;182;138813;-59
2023/04/19 04:25:46;;;;;;;13.60;10.90;;;;;;;11.69;67.84;98951.77;223582;182;137893;-59
2023/04/19 04:30:50;;;;;;;13.40;10.30;;;;;;;11.69;68.01;98953.23;223551;183;147369;-58
2023/04/19 04:35:55;;;;;;;16.00;10.50;;;;;;;11.70;68.03;98958.11;223564;183;138945;-60
2023/04/19 04:40:59;;;;;;;12.90;9.90;;;;;;;11.71;68.06;98953.61;223578;183;137242;-59
2023/04/19 04:46:02;;;;;;;13.00;9.80;;;;;;;11.71;68.10;98950.79;223550;183;150793;-59
2023/04/19 04:51:09;;;;;;;13.90;10.80;;;;;;;11.69;68.16;98945.36;223546;182;138425;-59
2023/04/19 04:56:13;;;;;;;13.70;9.40;;;;;;;11.73;68.12;98944.03;223523;182;138601;-60
2023/04/19 05:01:18;;;;;;;10.30;8.30;;;;;;;11.78;67.86;98937.81;223617;183;147330;-59
2023/04/19 05:06:22;;;;;;;12.80;9.00;;;;;;;11.86;67.77;98934.46;223558;183;138932;-60
2023/04/19 05:11:26;;;;;;;12.40;9.20;;;;;;;11.92;67.62;98926.94;223595;183;137631;-59
2023/04/19 05:16:30;;;;;;;12.30;9.20;;;;;;;11.95;67.58;98923.04;223646;182;147171;-59
2023/04/19 05:21:33;;;;;;;13.30;9.50;;;;;;;11.94;67.75;98926.48;223567;183;138624;-58
2023/04/19 05:26:37;;;;;;;11.60;8.90;;;;;;;11.95;67.79;98930.27;223564;183;138061;-61
2023/04/19 05:31:41;;;;;;;10.60;8.90;;;;;;;11.90;67.81;98934.93;223554;182;147209;-61
2023/04/19 05:36:51;;;;;;;12.30;8.40;;;;;;;11.87;68.12;98938.70;223540;183;139417;-60
2023/04/19 05:41:54;;;;;;;11.30;8.90;;;;;;;11.83;67.93;98944.41;223585;183;137529;-62
2023/04/19 05:46:57;;;;;;;11.30;8.70;;;;;;;11.78;68.14;98946.71;223564;182;148293;-61
2023/04/19 05:52:27;;;;;;;9.60;7.90;;;;;;;11.76;68.16;98947.79;223553;183;138824;-63
2023/04/19 05:57:32;;;;;;;171.70;119.00;;;;;;;11.82;68.44;98951.27;223530;183;138430;-63
2023/04/19 06:02:35;;;;;;;171.10;120.20;;;;;;;11.91;68.32;98950.52;223483;182;148032;-62
2023/04/19 06:07:39;;;;;;;17.40;12.20;;;;;;;12.02;68.26;98944.23;223568;182;139174;-60
2023/04/19 06:12:58;;;;;;;12.30;8.60;;;;;;;12.08;68.01;98935.79;223718;182;137549;-58
2023/04/19 06:18:01;;;;;;;346.60;252.50;;;;;;;12.11;67.91;98939.31;223349;183;148378;-59
2023/04/19 06:23:05;;;;;;;37.50;23.30;;;;;;;12.16;67.41;98943.58;223521;182;138515;-61
2023/04/19 06:28:08;;;;;;;14.00;10.50;;;;;;;12.23;67.18;98940.82;223606;182;137293;-62
2023/04/19 06:33:11;;;;;;;11.10;8.70;;;;;;;12.29;66.82;98939.09;223601;182;147154;-63
2023/04/19 06:38:14;;;;;;;37.10;26.60;;;;;;;12.27;66.74;98941.70;223628;182;138777;-61
2023/04/19 06:43:17;;;;;;;12.40;9.10;;;;;;;12.29;66.56;98944.42;223561;182;137420;-63
2023/04/19 06:48:20;;;;;;;10.70;8.70;;;;;;;12.27;66.22;98945.85;223591;183;147124;-63
2023/04/19 06:53:23;;;;;;;12.00;8.20;;;;;;;12.22;66.19;98944.59;223437;183;138676;-62
2023/04/19 06:58:27;;;;;;;11.20;8.30;;;;;;;12.18;66.00;98941.67;223650;182;138031;-62
2023/04/19 07:03:30;;;;;;;12.10;8.60;;;;;;;12.17;66.11;98944.23;223577;183;147730;-62
2023/04/19 07:08:34;;;;;;;12.10;9.30;;;;;;;12.21;66.01;98947.89;223495;183;138998;-62
2023/04/19 07:13:51;;;;;;;45.50;30.00;;;;;;;12.20;66.06;98950.58;223576;182;139938;-62
2023/04/19 07:18:54;;;;;;;13.30;10.20;;;;;;;12.21;65.78;98951.45;223660;182;147779;-62
2023/04/19 07:23:58;;;;;;;12.40;8.70;;;;;;;12.16;65.55;98952.86;223612;183;140773;-64
2023/04/19 07:29:02;;;;;;;7.20;5.70;;;;;;;12.06;65.47;98954.40;223476;182;136932;-63
2023/04/19 07:34:08;;;;;;;6.10;4.70;;;;;;;11.99;64.86;98951.89;223578;183;147587;-65
2023/04/19 07:39:12;;;;;;;6.10;4.00;;;;;;;11.91;64.46;98950.50;223482;182;138940;-64
2023/04/19 07:44:15;;;;;;;6.10;3.10;;;;;;;11.83;64.31;98953.32;223624;182;137535;-64
2023/04/19 07:49:32;;;;;;;4.00;3.00;;;;;;;11.77;64.02;98958.36;223587;182;147393;-65
2023/04/19 07:54:38;;;;;;;6.20;2.90;;;;;;;11.65;63.96;98962.17;223504;182;139023;-65
2023/04/19 07:59:41;;;;;;;3.70;2.20;;;;;;;11.59;63.90;98968.05;223648;183;136675;-65
2023/04/19 08:04:46;;;;;;;3.20;2.50;;;;;;;11.51;63.59;98966.30;223518;183;147172;-65
2023/04/19 08:09:50;;;;;;;3.80;2.50;;;;;;;11.49;63.82;98967.86;223556;182;138813;-65
2023/04/19 08:14:53;;;;;;;5.70;2.70;;;;;;;11.47;63.96;98966.96;223460;183;136765;-64
2023/04/19 08:20:20;;;;;;;3.60;2.80;;;;;;;11.50;64.09;98967.94;223660;182;147696;-64
2023/04/19 08:25:27;;;;;;;7.50;3.20;;;;;;;11.59;63.77;98968.42;223581;182;139206;-65
2023/04/19 08:30:33;;;;;;;4.40;2.70;;;;;;;11.63;63.63;98967.30;223573;183;137796;-64
2023/04/19 08:35:40;;;;;;;4.80;2.90;;;;;;;11.61;63.18;98965.11;223599;183;146897;-65
2023/04/19 08:40:51;;;;;;;5.60;3.40;;;;;;;11.57;63.24;98966.77;223530;183;138421;-65
2023/04/19 08:45:55;;;;;;;5.60;3.20;;;;;;;11.55;63.38;98969.21;223614;183;138054;-65
2023/04/19 08:50:59;;;;;;;5.00;3.40;;;;;;;11.53;63.56;98969.77;223630;183;146903;-65
2023/04/19 08:56:10;;;;;;;5.00;3.30;;;;;;;11.48;63.57;98976.27;223510;183;139117;-65
2023/04/19 09:01:29;;;;;;;5.10;3.40;;;;;;;11.50;63.83;98972.09;223548;182;137697;-65
2023/04/19 09:06:39;;;;;;;6.80;3.50;;;;;;;11.50;63.44;98977.59;223654;182;147603;-65
2023/04/19 09:11:43;;;;;;;7.20;3.20;;;;;;;11.54;63.59;98977.66;223533;182;138386;-65
2023/04/19 09:16:47;;;;;;;6.60;3.40;;;;;;;11.54;63.54;98980.84;223582;183;137416;-65
2023/04/19 09:21:50;;;;;;;8.70;3.30;;;;;;;11.52;63.61;98981.19;223546;183;147040;-64
2023/04/19 09:26:54;;;;;;;6.30;3.00;;;;;;;11.48;63.60;98980.70;223533;183;138648;-64
2023/04/19 10:27:45;;;;;;;6.10;3.10;;;;;;;11.21;65.25;98982.50;222171;193;665851;-65
2023/04/19 10:32:55;;;;;;;5.90;2.80;;;;;;;11.28;65.26;98980.79;224000;180;137123;-65
2023/04/19 10:38:07;;;;;;;6.70;3.00;;;;;;;11.37;65.28;98981.09;224104;180;143721;-64
2023/04/19 10:43:14;;;;;;;4.80;3.40;;;;;;;11.46;65.23;98980.55;223974;181;138420;-65
2023/04/19 10:48:36;;;;;;;7.00;4.10;;;;;;;11.49;65.31;98978.02;223960;181;136107;-65
2023/04/19 10:53:47;;;;;;;5.40;3.20;;;;;;;11.52;65.14;98982.25;224014;180;143366;-64
2023/04/19 10:59:10;;;;;;;6.00;3.30;;;;;;;11.53;65.10;98981.83;223829;181;138642;-65
2023/04/19 11:04:20;;;;;;;6.90;3.40;;;;;;;11.54;65.20;98979.05;224013;180;136714;-65
2023/04/19 11:09:33;;;;;;;5.00;3.60;;;;;;;11.56;65.54;98984.24;223932;181;144290;-64
2023/04/19 11:14:40;;;;;;;5.20;3.30;;;;;;;11.59;65.57;98981.23;223833;180;142276;-64
2023/04/19 11:19:57;;;;;;;3.90;3.20;;;;;;;11.65;65.82;98976.90;223916;180;139510;-64
2023/04/19 11:25:16;;;;;;;4.60;3.50;;;;;;;11.73;66.07;98968.03;223692;181;145595;-64
2023/04/19 11:30:29;;;;;;;4.20;3.40;;;;;;;11.89;66.14;98964.15;223923;181;139601;-65
2023/04/19 11:35:33;;;;;;;5.30;4.10;;;;;;;12.10;65.93;98962.50;223686;180;137397;-64
2023/04/19 11:40:36;;;;;;;9.60;4.00;;;;;;;12.23;65.57;98963.38;223697;181;145795;-64
2023/04/19 11:45:40;;;;;;;8.30;4.20;;;;;;;12.34;65.42;98964.92;223673;181;139326;-64
2023/04/19 11:50:44;;;;;;;5.80;4.60;;;;;;;12.44;64.97;98965.85;223711;181;137124;-65
2023/04/19 11:55:54;;;;;;;6.60;4.70;;;;;;;12.46;64.68;98967.77;223688;181;145777;-64
2023/04/19 12:01:05;;;;;;;6.10;4.70;;;;;;;12.43;64.26;98973.33;223731;181;139347;-64
2023/04/19 12:06:17;;;;;;;8.70;5.30;;;;;;;12.31;64.43;98976.72;223884;181;136793;-64
2023/04/19 12:11:25;;;;;;;6.60;4.70;;;;;;;12.19;64.65;98978.95;223759;181;145426;-65
2023/04/19 12:16:28;;;;;;;6.10;4.90;;;;;;;12.08;64.86;98988.09;223713;181;138134;-64
2023/04/19 12:25:29;;;;;;;12.10;5.80;;;;;;;11.92;65.45;98992.19;221677;193;667740;-73
2023/04/19 12:30:35;;;;;;;8.20;5.50;;;;;;;11.87;65.85;98991.46;223027;188;137400;-82
2023/04/19 12:35:39;;;;;;;10.30;5.30;;;;;;;11.89;65.83;98989.72;223175;187;143984;-75
2023/04/19 12:40:43;;;;;;;7.10;5.40;;;;;;;11.86;65.81;98990.31;223312;184;138586;-66
2023/04/19 12:45:46;;;;;;;7.40;5.20;;;;;;;11.98;66.04;98986.60;223506;184;136690;-67
2023/04/19 12:50:49;;;;;;;8.80;5.00;;;;;;;12.11;65.73;98986.81;223458;184;143262;-66
2023/04/19 12:55:52;;;;;;;8.90;5.10;;;;;;;12.25;65.09;98982.98;223490;184;138925;-66
2023/04/19 13:00:55;;;;;;;8.30;5.30;;;;;;;12.23;64.82;98982.25;223533;184;139286;-66
2023/04/19 13:05:58;;;;;;;11.80;5.80;;;;;;;12.23;64.36;98982.96;223589;184;144198;-66
2023/04/19 13:25:25;;;;;;;10.30;6.70;;;;;;;12.26;64.74;98983.94;219739;192;666026;-66
2023/04/19 13:30:28;;;;;;;11.40;6.30;;;;;;;12.30;64.34;98983.72;220686;187;139895;-63
2023/04/19 13:35:32;;;;;;;12.20;7.20;;;;;;;12.39;64.25;98985.35;220698;186;143780;-64
2023/04/19 13:40:35;;;;;;;11.00;6.80;;;;;;;12.48;64.13;98987.60;221000;183;139420;-67
2023/04/19 13:45:38;;;;;;;10.80;6.60;;;;;;;12.52;63.82;98984.67;220860;183;137923;-64
2023/04/19 13:50:41;;;;;;;8.30;6.20;;;;;;;12.61;63.62;98979.73;220846;183;143988;-64
2023/04/19 13:55:45;;;;;;;11.90;6.40;;;;;;;12.69;63.59;98974.55;220973;183;139302;-64
2023/04/19 14:00:49;;;;;;;12.80;6.60;;;;;;;12.77;63.32;98966.85;221070;183;137240;-64
2023/04/19 14:05:53;;;;;;;10.80;7.30;;;;;;;12.86;62.96;98969.77;220845;183;144594;-65
2023/04/19 14:10:57;;;;;;;12.70;7.90;;;;;;;12.84;62.08;98972.40;220950;183;139184;-64
2023/04/19 14:16:01;;;;;;;12.30;8.10;;;;;;;12.95;62.81;98967.46;220971;179;137619;-66
2023/04/19 14:21:04;;;;;;;9.50;7.60;;;;;;;13.09;62.36;98972.34;220757;183;145680;-67
2023/04/19 14:26:07;;;;;;;9.30;7.30;;;;;;;13.10;62.34;98972.97;220809;183;140235;-66
2023/04/19 14:31:11;;;;;;;10.00;7.90;;;;;;;13.11;62.47;98972.21;220805;183;139582;-65
2023/04/19 14:36:27;;;;;;;10.80;8.20;;;;;;;13.12;62.42;98972.14;220973;184;145870;-64
2023/04/19 14:41:38;;;;;;;10.70;7.90;;;;;;;13.21;62.40;98968.22;220846;183;139085;-63
2023/04/19 14:46:41;;;;;;;10.40;8.20;;;;;;;13.36;62.38;98970.04;220912;183;139627;-64
2023/04/19 14:51:44;;;;;;;11.20;8.10;;;;;;;13.33;62.03;98967.72;220911;183;146163;-65
2023/04/19 14:56:49;;;;;;;13.40;8.80;;;;;;;13.32;62.43;98967.83;220840;183;138988;-64
2023/04/19 15:01:52;;;;;;;12.00;8.80;;;;;;;13.40;62.36;98974.16;221029;182;137418;-64
2023/04/19 15:06:55;;;;;;;14.20;9.10;;;;;;;13.50;62.03;98981.26;221091;182;145633;-66
2023/04/19 15:12:00;;;;;;;11.70;8.30;;;;;;;13.56;61.69;98979.20;220937;182;139308;-65
2023/04/19 15:17:04;;;;;;;11.70;8.90;;;;;;;13.47;61.40;98984.15;220955;181;138253;-64
2023/04/19 15:22:07;;;;;;;11.20;8.70;;;;;;;13.32;61.16;98991.70;220932;182;146700;-66
2023/04/19 15:27:11;;;;;;;12.00;9.50;;;;;;;13.16;61.71;98996.27;220876;178;139321;-65
2023/04/19 15:32:15;;;;;;;13.50;10.10;;;;;;;13.02;61.95;98997.09;221015;181;140908;-65
2023/04/19 15:37:18;;;;;;;14.70;9.70;;;;;;;12.86;62.18;99004.13;220965;177;146338;-65
2023/04/19 15:42:22;;;;;;;13.90;10.10;;;;;;;12.72;62.47;99009.88;221100;181;138919;-64
2023/04/19 15:47:26;;;;;;;14.60;10.20;;;;;;;12.61;62.86;99016.23;221101;179;137176;-64
2023/04/19 15:52:30;;;;;;;13.70;10.30;;;;;;;12.53;63.02;99015.70;220956;181;145705;-65
2023/04/19 15:57:34;;;;;;;15.60;10.10;;;;;;;12.44;63.52;99020.23;220935;181;139293;-67
2023/04/19 16:02:39;;;;;;;11.00;8.50;;;;;;;12.36;63.75;99020.29;221237;181;137215;-66
2023/04/19 16:07:44;;;;;;;14.70;8.40;;;;;;;12.30;63.87;99024.58;220986;181;145753;-66
2023/04/19 16:12:47;;;;;;;16.00;9.70;;;;;;;12.33;63.97;99023.34;220937;182;138969;-65
2023/04/19 16:17:53;;;;;;;;;;;;;;;12.42;64.11;99026.83;220950;181;139933;-60
2023/04/19 16:23:01;;;;;;;15.30;11.10;;;;;;;12.46;63.68;99030.58;221091;181;147701;-62
2023/04/19 16:28:05;;;;;;;13.60;11.00;;;;;;;12.42;63.56;99036.41;220993;181;138643;-60
2023/04/19 16:33:10;;;;;;;17.10;11.40;;;;;;;12.36;63.54;99035.74;220944;181;138985;-61
2023/04/19 16:38:14;;;;;;;15.50;11.10;;;;;;;12.34;63.74;99034.98;221078;181;144794;-62
2023/04/19 16:43:19;;;;;;;16.80;11.40;;;;;;;12.26;64.00;99040.92;221005;181;138859;-61
2023/04/19 16:48:23;;;;;;;15.70;11.30;;;;;;;12.19;64.27;99040.65;221051;182;137285;-61
2023/04/19 16:53:29;;;;;;;16.00;12.30;;;;;;;12.09;64.14;99045.58;220968;181;146041;-61
2023/04/19 16:58:33;;;;;;;;;;;;;;;12.04;64.46;99049.15;221111;181;139008;-61
2023/04/19 17:03:37;;;;;;;18.00;11.70;;;;;;;11.98;64.60;99051.02;221114;181;131178;-61
2023/04/19 17:08:41;;;;;;;14.60;12.30;;;;;;;11.92;64.69;99050.02;221050;181;145520;-61
2023/04/19 17:13:45;;;;;;;18.40;13.00;;;;;;;11.88;64.93;99060.56;221084;181;138687;-61
2023/04/19 17:18:51;;;;;;;18.00;12.20;;;;;;;11.85;64.79;99060.95;221044;181;137182;-61
2023/04/19 17:23:55;;;;;;;16.10;11.90;;;;;;;11.82;65.07;99065.69;220911;182;146195;-60
2023/04/19 17:28:59;;;;;;;20.90;13.40;;;;;;;11.84;65.36;99070.58;221093;181;138757;-61
2023/04/19 17:34:04;;;;;;;17.60;13.00;;;;;;;11.92;65.14;99073.95;221058;182;137987;-61
2023/04/19 17:39:08;;;;;;;19.40;13.20;;;;;;;11.97;64.89;99078.77;221100;181;145924;-61
2023/04/19 17:44:12;;;;;;;19.50;13.50;;;;;;;11.88;64.82;99080.98;220989;181;139910;-59
2023/04/19 17:49:20;;;;;;;18.70;13.80;;;;;;;11.84;65.25;99088.72;221077;181;137580;-61
2023/04/19 17:54:23;;;;;;;18.10;13.50;;;;;;;11.78;65.51;99098.14;221054;182;145672;-61
2023/04/19 17:59:31;;;;;;;92.00;69.40;;;;;;;11.76;65.90;99102.94;220981;181;139603;-61
2023/04/19 18:04:36;;;;;;;24.20;17.40;;;;;;;11.88;66.88;99106.97;220983;181;137859;-61
2023/04/19 18:09:41;;;;;;;18.30;14.00;;;;;;;11.92;65.83;99111.50;220983;181;146871;-61
2023/04/19 18:14:45;;;;;;;18.70;14.20;;;;;;;11.82;65.88;99113.00;221050;182;139235;-61
2023/04/19 18:19:49;;;;;;;21.20;14.00;;;;;;;11.76;65.85;99117.16;220946;182;138274;-61
2023/04/19 18:24:53;;;;;;;19.10;12.30;;;;;;;11.68;65.89;99126.35;221005;181;146215;-61
2023/04/19 18:29:57;;;;;;;20.10;12.40;;;;;;;11.65;65.94;99131.55;221008;181;138854;-61
2023/04/19 18:35:07;;;;;;;18.10;12.60;;;;;;;11.64;66.13;99139.77;221070;182;140138;-62
2023/04/19 18:40:12;;;;;;;16.80;12.90;;;;;;;11.66;66.29;99142.48;221030;181;146230;-61
2023/04/19 18:45:16;;;;;;;20.20;13.10;;;;;;;11.69;66.13;99143.76;221044;178;139332;-63
2023/04/19 18:50:21;;;;;;;17.60;13.40;;;;;;;11.68;66.21;99145.72;221150;181;137748;-61
2023/04/19 18:55:25;;;;;;;322.00;245.40;;;;;;;11.67;66.85;99147.73;220945;181;146072;-61
2023/04/19 19:00:29;;;;;;;27.70;17.70;;;;;;;11.77;67.09;99147.27;221095;181;139285;-60
2023/04/19 19:05:32;;;;;;;23.00;14.80;;;;;;;11.74;66.17;99148.58;221059;178;137572;-63
2023/04/19 19:10:38;;;;;;;16.90;12.50;;;;;;;11.63;66.06;99149.77;220930;181;146228;-63
2023/04/19 19:15:46;;;;;;;17.80;13.00;;;;;;;11.50;66.22;99148.63;221034;182;138663;-61
2023/04/19 19:20:51;;;;;;;117.70;87.50;;;;;;;11.45;66.72;99151.13;221038;182;137413;-62
2023/04/19 19:25:55;;;;;;;24.10;14.20;;;;;;;11.50;67.21;99152.59;221056;181;145822;-60
2023/04/19 19:31:00;;;;;;;20.00;13.20;;;;;;;11.43;66.34;99152.70;220962;180;138810;-62
2023/04/19 19:36:05;;;;;;;17.80;13.50;;;;;;;11.36;66.21;99154.22;221115;181;138035;-62
2023/04/19 19:41:09;;;;;;;21.40;15.40;;;;;;;11.33;66.48;99158.63;221108;181;146050;-62
2023/04/19 19:46:33;;;;;;;17.40;13.30;;;;;;;11.28;66.44;99161.77;221038;181;138881;-61
2023/04/19 19:51:40;;;;;;;23.40;14.40;;;;;;;11.24;66.49;99167.36;221078;181;138052;-62
2023/04/19 19:57:01;;;;;;;20.60;14.30;;;;;;;11.16;66.51;99168.23;220988;181;147992;-63
2023/04/19 20:02:08;;;;;;;23.00;14.90;;;;;;;11.19;66.73;99161.33;221030;181;138958;-62
2023/04/19 20:07:13;;;;;;;22.30;14.70;;;;;;;11.20;66.71;99165.14;221039;181;137341;-61
2023/04/19 20:12:20;;;;;;;19.90;13.60;;;;;;;11.14;66.95;99167.98;221028;181;146353;-61
2023/04/19 20:17:23;;;;;;;22.30;14.20;;;;;;;11.09;67.26;99169.23;221068;181;139136;-61
2023/04/19 20:22:28;;;;;;;21.20;13.60;;;;;;;11.07;67.29;99170.00;221134;181;138197;-61
2023/04/19 20:27:32;;;;;;;19.60;14.10;;;;;;;11.03;67.32;99167.61;221117;181;146368;-63
2023/04/19 20:32:36;;;;;;;17.60;13.90;;;;;;;11.06;67.62;99167.77;221091;181;138682;-63
2023/04/19 20:37:43;;;;;;;19.70;13.80;;;;;;;11.11;67.83;99168.02;221108;182;137393;-65
2023/04/19 20:42:46;;;;;;;21.00;14.90;;;;;;;11.12;67.78;99164.40;221174;181;145758;-66
2023/04/19 20:47:52;;;;;;;20.70;14.90;;;;;;;11.12;68.03;99167.20;221059;182;139275;-64
2023/04/19 20:53:02;;;;;;;18.60;13.80;;;;;;;11.13;68.19;99165.38;221272;181;141099;-65
2023/04/19 20:58:06;;;;;;;19.80;14.60;;;;;;;11.13;68.22;99164.48;221092;181;146276;-62
2023/04/19 21:03:10;;;;;;;21.20;16.00;;;;;;;11.12;68.57;99166.52;221022;181;139174;-60
2023/04/19 21:08:17;;;;;;;20.80;15.50;;;;;;;11.09;68.90;99171.00;221093;181;137504;-60
2023/04/19 21:13:21;;;;;;;21.30;14.90;;;;;;;11.04;69.35;99170.73;221068;181;146421;-60
2023/04/19 21:18:28;;;;;;;20.40;14.60;;;;;;;11.05;69.61;99171.05;220944;181;139391;-60
2023/04/19 21:23:31;;;;;;;20.60;15.10;;;;;;;11.07;69.89;99175.70;221065;181;137690;-60
2023/04/19 21:28:35;;;;;;;21.60;16.10;;;;;;;11.10;70.06;99177.85;221054;182;145709;-61
2023/04/19 21:33:39;;;;;;;24.60;16.60;;;;;;;11.11;70.31;99178.64;221118;181;140064;-60
2023/04/19 21:38:43;;;;;;;23.10;17.70;;;;;;;11.09;70.24;99175.40;221105;181;137397;-61
2023/04/19 21:43:47;;;;;;;26.80;17.70;;;;;;;11.06;70.22;99172.58;221062;182;146376;-67
2023/04/19 21:48:51;;;;;;;22.70;16.50;;;;;;;11.05;70.21;99179.20;221118;181;138867;-67
2023/04/19 21:53:57;;;;;;;21.60;16.20;;;;;;;11.04;70.33;99174.50;220946;181;137842;-62
2023/04/19 21:59:01;;;;;;;22.40;16.20;;;;;;;10.97;70.86;99178.98;221189;181;148586;-62
2023/04/19 22:04:05;;;;;;;24.60;16.60;;;;;;;10.99;71.13;99176.91;221078;181;138842;-62
2023/04/19 22:09:12;;;;;;;26.10;17.50;;;;;;;11.00;71.03;99177.01;221162;181;140006;-61
2023/04/19 22:14:17;;;;;;;23.00;17.40;;;;;;;11.03;70.95;99181.84;220860;181;147573;-61
2023/04/19 22:19:25;;;;;;;23.10;16.60;;;;;;;11.00;70.79;99180.44;221110;178;139079;-62
2023/04/19 22:24:29;;;;;;;23.70;17.50;;;;;;;10.92;70.96;99183.92;221055;181;137449;-64
2023/04/19 22:29:35;;;;;;;24.90;17.80;;;;;;;10.84;71.15;99181.39;221104;181;147959;-64
2023/04/19 22:34:38;;;;;;;20.80;16.70;;;;;;;10.83;71.35;99179.52;221067;181;140061;-65
2023/04/19 22:39:43;;;;;;;23.10;16.40;;;;;;;10.80;71.51;99182.86;221129;181;138168;-64
2023/04/19 22:44:46;;;;;;;25.50;18.70;;;;;;;10.86;71.54;99177.89;221119;181;147834;-65
2023/04/19 22:49:50;;;;;;;23.30;18.20;;;;;;;10.89;71.16;99180.39;221063;182;140016;-65
2023/04/19 22:54:55;;;;;;;22.80;17.80;;;;;;;10.85;70.87;99176.54;221144;182;138683;-64
2023/04/19 23:00:00;;;;;;;24.10;17.80;;;;;;;10.78;70.89;99176.23;221001;181;147832;-61
2023/04/19 23:05:05;;;;;;;26.00;18.30;;;;;;;10.69;70.93;99173.60;221187;181;139540;-62
2023/04/19 23:10:11;;;;;;;25.30;19.00;;;;;;;10.60;71.11;99185.46;220988;181;137500;-63
2023/04/19 23:15:16;;;;;;;;;;;;;;;10.54;71.14;99184.98;221047;181;147560;-63
2023/04/19 23:20:20;;;;;;;34.30;19.10;;;;;;;10.46;71.25;99185.98;221198;181;139203;-63
2023/04/19 23:25:24;;;;;;;30.30;18.40;;;;;;;10.37;71.41;99190.39;221125;177;137975;-63
2023/04/19 23:30:30;;;;;;;23.30;16.70;;;;;;;10.31;71.46;99186.31;221088;181;147452;-64
2023/04/19 23:35:34;;;;;;;26.90;17.80;;;;;;;10.30;71.52;99178.05;221093;182;142568;-62
2023/04/19 23:40:38;;;;;;;25.50;18.80;;;;;;;10.28;71.46;99171.27;220999;181;138257;-60
2023/04/19 23:45:43;;;;;;;26.50;18.50;;;;;;;10.26;71.49;99167.65;221123;181;149602;-61
2023/04/19 23:50:48;;;;;;;27.80;18.40;;;;;;;10.21;71.44;99162.75;221031;182;139052;-61
2023/04/19 23:55:53;;;;;;;27.30;18.70;;;;;;;10.14;71.54;99156.94;221126;182;137775;-59
